createdAt,value
2022-08-03T00:02:34.738Z,19.70
2022-08-03T00:05:21.132Z,19.50
2022-08-03T00:08:07.390Z,19.50
2022-08-03T00:10:55.203Z,19.60
2022-08-03T00:13:41.447Z,19.50
2022-08-03T00:16:27.480Z,19.40
2022-08-03T00:19:13.690Z,19.40
2022-08-03T00:21:59.825Z,19.40
2022-08-03T00:24:46.284Z,19.40
2022-08-03T00:27:35.064Z,19.40
2022-08-03T00:30:21.945Z,19.40
2022-08-03T00:33:13.056Z,19.30
2022-08-03T00:36:00.740Z,19.30
2022-08-03T00:38:46.924Z,19.30
2022-08-03T00:41:34.244Z,19.20
2022-08-03T00:44:21.913Z,19.10
2022-08-03T00:47:08.287Z,19.10
2022-08-03T00:49:54.418Z,19.30
2022-08-03T00:52:40.569Z,19.10
2022-08-03T00:55:27.316Z,19.20
2022-08-03T00:58:13.608Z,19.00
2022-08-03T01:01:01.280Z,19.10
2022-08-03T01:03:47.738Z,19.20
2022-08-03T01:06:42.551Z,19.20
2022-08-03T01:09:36.683Z,19.10
2022-08-03T01:12:30.120Z,18.90
2022-08-03T01:15:26.129Z,18.90
2022-08-03T01:18:19.309Z,18.80
2022-08-03T01:21:15.553Z,18.90
2022-08-03T01:24:14.359Z,18.70
2022-08-03T01:27:13.655Z,18.70
2022-08-03T01:30:07.057Z,18.80
2022-08-03T01:33:00.562Z,18.80
2022-08-03T01:35:55.363Z,18.70
2022-08-03T01:38:44.755Z,18.70
2022-08-03T01:41:36.303Z,18.70
2022-08-03T01:44:30.012Z,18.50
2022-08-03T01:47:22.080Z,18.70
2022-08-03T01:50:11.752Z,18.50
2022-08-03T01:52:59.668Z,18.60
2022-08-03T01:55:48.272Z,18.60
2022-08-03T01:58:37.297Z,18.60
2022-08-03T02:01:25.016Z,18.50
2022-08-03T02:04:32.911Z,18.40
2022-08-03T02:07:20.615Z,18.40
2022-08-03T02:10:08.335Z,18.40
2022-08-03T02:12:55.549Z,18.50
2022-08-03T02:15:42.904Z,18.40
2022-08-03T02:18:30.622Z,18.40
2022-08-03T02:21:48.233Z,18.40
2022-08-03T02:24:25.665Z,18.30
2022-08-03T02:27:21.124Z,18.30
2022-08-03T02:30:10.871Z,18.30
2022-08-03T02:32:58.876Z,18.20
2022-08-03T02:35:46.177Z,18.30
2022-08-03T02:38:37.028Z,18.30
2022-08-03T02:41:25.936Z,18.30
2022-08-03T02:44:14.401Z,18.40
2022-08-03T02:47:04.473Z,18.50
2022-08-03T02:49:52.784Z,18.40
2022-08-03T02:52:40.838Z,18.30
2022-08-03T02:55:29.555Z,18.30
2022-08-03T02:58:19.634Z,18.30
2022-08-03T03:01:07.185Z,18.30
2022-08-03T03:03:54.562Z,18.20
2022-08-03T03:06:42.401Z,18.20
2022-08-03T03:09:42.007Z,18.20
2022-08-03T03:12:32.247Z,18.10
2022-08-03T03:15:18.870Z,18.10
2022-08-03T03:18:06.564Z,18.20
2022-08-03T03:20:53.973Z,18.20
2022-08-03T03:23:42.220Z,18.20
2022-08-03T03:26:28.986Z,18.10
2022-08-03T03:29:17.982Z,18.10
2022-08-03T03:32:05.857Z,18.10
2022-08-03T03:34:56.329Z,18.10
2022-08-03T03:37:42.732Z,18.10
2022-08-03T03:40:29.311Z,18.00
2022-08-03T03:43:15.778Z,17.90
2022-08-03T03:46:03.740Z,18.00
2022-08-03T03:48:50.409Z,18.10
2022-08-03T03:51:36.743Z,18.00
2022-08-03T03:54:25.464Z,17.90
2022-08-03T03:57:15.812Z,17.90
2022-08-03T04:00:02.238Z,17.90
2022-08-03T04:02:49.821Z,17.90
2022-08-03T04:05:53.683Z,18.00
2022-08-03T04:08:59.284Z,18.10
2022-08-03T04:11:51.244Z,18.00
2022-08-03T04:14:39.301Z,18.00
2022-08-03T04:17:29.347Z,18.10
2022-08-03T04:20:19.522Z,18.00
2022-08-03T04:23:13.646Z,18.00
2022-08-03T04:26:03.775Z,18.00
2022-08-03T04:28:51.497Z,18.10
2022-08-03T04:31:39.300Z,18.10
2022-08-03T04:34:25.721Z,18.00
2022-08-03T04:37:19.643Z,18.00
2022-08-03T04:40:10.277Z,18.10
2022-08-03T04:42:57.373Z,18.10
2022-08-03T04:45:44.850Z,18.20
2022-08-03T04:48:31.394Z,18.20
2022-08-03T04:51:18.538Z,18.20
2022-08-03T04:54:07.265Z,18.30
2022-08-03T04:56:53.614Z,18.30
2022-08-03T04:59:40.858Z,18.30
2022-08-03T05:02:27.239Z,18.30
2022-08-03T05:05:13.597Z,18.40
2022-08-03T05:08:00.765Z,18.40
2022-08-03T05:10:51.367Z,18.50
2022-08-03T05:13:37.397Z,18.50
2022-08-03T05:16:25.739Z,18.60
2022-08-03T05:19:12.081Z,18.70
2022-08-03T05:21:58.246Z,18.80
2022-08-03T05:24:44.732Z,18.90
2022-08-03T05:27:32.295Z,18.90
2022-08-03T05:30:31.709Z,19.00
2022-08-03T05:33:20.640Z,19.20
2022-08-03T05:36:07.227Z,19.20
2022-08-03T05:38:53.726Z,19.30
2022-08-03T05:41:40.261Z,19.30
2022-08-03T05:44:28.372Z,19.40
2022-08-03T05:47:16.906Z,19.50
2022-08-03T05:50:03.058Z,19.60
2022-08-03T05:52:49.439Z,19.60
2022-08-03T05:55:36.165Z,19.80
2022-08-03T05:58:22.646Z,19.90
2022-08-03T06:01:10.559Z,20.00
2022-08-03T06:03:56.751Z,20.00
2022-08-03T06:06:43.099Z,20.10
2022-08-03T06:09:31.868Z,20.30
2022-08-03T06:12:36.419Z,20.50
2022-08-03T06:15:23.276Z,20.60
2022-08-03T06:18:11.257Z,20.60
2022-08-03T06:20:57.499Z,20.70
2022-08-03T06:23:53.927Z,20.80
2022-08-03T06:26:42.045Z,21.00
2022-08-03T06:29:28.270Z,21.10
2022-08-03T06:32:14.909Z,21.20
2022-08-03T06:35:03.101Z,21.20
2022-08-03T06:37:51.521Z,21.30
2022-08-03T06:40:39.958Z,21.40
2022-08-03T06:43:26.228Z,21.60
2022-08-03T06:46:12.373Z,21.70
2022-08-03T06:48:58.620Z,21.80
2022-08-03T06:52:06.193Z,21.80
2022-08-03T06:54:52.865Z,21.90
2022-08-03T06:57:39.008Z,22.00
2022-08-03T07:00:26.239Z,22.00
2022-08-03T07:03:12.142Z,22.10
2022-08-03T07:05:58.190Z,22.20
2022-08-03T07:08:45.588Z,22.30
2022-08-03T07:11:31.913Z,22.50
2022-08-03T07:14:18.257Z,22.60
2022-08-03T07:17:04.559Z,22.60
2022-08-03T07:19:57.729Z,22.80
2022-08-03T07:22:43.809Z,22.90
2022-08-03T07:25:31.315Z,23.00
2022-08-03T07:28:17.537Z,23.00
2022-08-03T07:31:03.652Z,23.20
2022-08-03T07:33:49.685Z,23.40
2022-08-03T07:36:36.160Z,23.50
2022-08-03T07:39:22.375Z,23.50
2022-08-03T07:42:09.923Z,23.60
2022-08-03T07:44:56.451Z,23.70
2022-08-03T07:47:42.704Z,23.80
2022-08-03T07:50:40.069Z,23.90
2022-08-03T07:53:26.294Z,23.90
2022-08-03T07:56:13.132Z,24.10
2022-08-03T07:59:02.350Z,24.10
2022-08-03T08:01:48.436Z,24.00
2022-08-03T08:04:34.638Z,24.00
2022-08-03T08:07:20.812Z,24.10
2022-08-03T08:10:09.860Z,24.20
2022-08-03T08:12:56.699Z,24.30
2022-08-03T08:15:44.577Z,24.40
2022-08-03T08:18:34.392Z,24.40
2022-08-03T08:21:20.797Z,24.50
2022-08-03T08:24:13.380Z,24.90
2022-08-03T08:27:04.815Z,25.00
2022-08-03T08:29:54.287Z,25.20
2022-08-03T08:32:44.156Z,25.50
2022-08-03T08:35:30.608Z,25.60
2022-08-03T08:38:16.628Z,25.60
2022-08-03T08:41:02.696Z,25.70
2022-08-03T08:43:49.090Z,25.80
2022-08-03T08:46:35.403Z,26.10
2022-08-03T08:49:26.817Z,26.20
2022-08-03T08:52:25.321Z,26.20
2022-08-03T08:55:20.665Z,26.30
2022-08-03T08:58:07.440Z,26.60
2022-08-03T09:00:53.629Z,26.80
2022-08-03T09:03:40.344Z,26.80
2022-08-03T09:06:27.917Z,26.70
2022-08-03T09:09:28.481Z,26.60
2022-08-03T09:12:41.152Z,26.60
2022-08-03T09:15:28.067Z,26.90
2022-08-03T09:18:15.171Z,27.00
2022-08-03T09:21:30.760Z,27.30
2022-08-03T09:24:40.842Z,27.50
2022-08-03T09:27:27.601Z,27.50
2022-08-03T09:30:33.404Z,27.70
2022-08-03T09:33:21.391Z,28.00
2022-08-03T09:36:08.035Z,28.20
2022-08-03T09:39:04.426Z,28.40
2022-08-03T09:42:07.155Z,28.40
2022-08-03T09:44:53.874Z,28.40
2022-08-03T09:47:44.863Z,28.50
2022-08-03T09:50:56.907Z,29.10
2022-08-03T09:54:00.247Z,29.10
2022-08-03T09:56:47.835Z,28.90
2022-08-03T09:59:35.761Z,29.10
2022-08-03T10:02:26.928Z,28.90
2022-08-03T10:05:19.577Z,28.90
2022-08-03T10:08:15.854Z,29.00
2022-08-03T10:11:02.313Z,28.90
2022-08-03T10:13:48.484Z,28.90
2022-08-03T10:16:37.841Z,28.90
2022-08-03T10:19:25.519Z,28.90
2022-08-03T10:22:15.112Z,28.80
2022-08-03T10:25:05.355Z,28.60
2022-08-03T10:27:53.671Z,29.00
2022-08-03T10:30:45.017Z,29.20
2022-08-03T10:33:50.869Z,29.20
2022-08-03T10:36:40.228Z,29.20
2022-08-03T10:39:30.588Z,29.50
2022-08-03T10:42:16.947Z,29.70
2022-08-03T10:45:07.286Z,30.00
2022-08-03T10:47:56.226Z,30.40
2022-08-03T10:50:44.284Z,30.30
2022-08-03T10:53:38.359Z,30.40
2022-08-03T10:56:57.073Z,30.50
2022-08-03T11:00:02.950Z,30.40
2022-08-03T11:03:09.557Z,30.50
2022-08-03T11:06:18.899Z,30.90
2022-08-03T11:09:16.582Z,30.90
2022-08-03T11:12:30.393Z,30.80
2022-08-03T11:15:33.720Z,31.00
2022-08-03T11:18:19.892Z,31.30
2022-08-03T11:21:07.629Z,31.40
2022-08-03T11:24:05.336Z,31.40
2022-08-03T11:27:21.599Z,31.40
2022-08-03T11:30:10.195Z,31.50
2022-08-03T11:33:01.557Z,31.70
2022-08-03T11:36:00.373Z,31.90
2022-08-03T11:39:16.567Z,32.20
2022-08-03T11:42:46.869Z,32.40
2022-08-03T11:45:33.219Z,32.60
2022-08-03T11:48:20.693Z,32.60
2022-08-03T11:51:08.626Z,32.40
2022-08-03T11:53:56.300Z,32.30
2022-08-03T11:56:46.980Z,32.30
2022-08-03T11:59:35.507Z,32.50
2022-08-03T12:02:21.690Z,32.10
2022-08-03T12:05:08.586Z,32.50
2022-08-03T12:08:03.597Z,32.60
2022-08-03T12:10:52.331Z,32.80
2022-08-03T12:14:26.893Z,32.80
2022-08-03T12:16:49.856Z,32.90
2022-08-03T12:19:43.508Z,33.10
2022-08-03T12:22:33.557Z,33.60
2022-08-03T12:25:27.001Z,33.70
2022-08-03T12:28:28.256Z,34.00
2022-08-03T12:31:23.772Z,34.00
2022-08-03T12:34:11.300Z,34.30
2022-08-03T12:36:57.777Z,34.20
2022-08-03T12:40:03.547Z,33.90
2022-08-03T12:42:53.209Z,33.50
2022-08-03T12:45:39.509Z,33.50
2022-08-03T12:48:25.886Z,33.70
2022-08-03T12:51:15.593Z,33.90
2022-08-03T12:54:02.650Z,33.70
2022-08-03T12:56:59.569Z,34.10
2022-08-03T12:59:53.030Z,34.50
2022-08-03T13:02:40.080Z,34.40
2022-08-03T13:05:33.242Z,34.40
2022-08-03T13:08:22.457Z,34.30
2022-08-03T13:11:23.093Z,34.80
2022-08-03T13:14:29.547Z,34.90
2022-08-03T13:17:17.791Z,35.20
2022-08-03T13:20:05.606Z,35.30
2022-08-03T13:22:52.491Z,35.30
2022-08-03T13:25:40.260Z,35.20
2022-08-03T13:28:42.160Z,35.30
2022-08-03T13:31:28.653Z,35.40
2022-08-03T13:34:14.787Z,35.20
2022-08-03T13:37:19.435Z,35.20
2022-08-03T13:40:08.156Z,35.00
2022-08-03T13:42:59.099Z,34.90
2022-08-03T13:45:51.260Z,35.00
2022-08-03T13:48:39.764Z,35.50
2022-08-03T13:51:26.938Z,35.50
2022-08-03T13:54:13.313Z,35.80
2022-08-03T13:57:00.782Z,35.90
2022-08-03T14:00:08.626Z,35.90
2022-08-03T14:03:01.827Z,35.70
2022-08-03T14:05:50.532Z,36.00
2022-08-03T14:08:36.917Z,36.20
2022-08-03T14:11:23.300Z,36.00
2022-08-03T14:14:29.618Z,35.80
2022-08-03T14:17:17.286Z,36.10
2022-08-03T14:20:36.532Z,36.10
2022-08-03T14:23:12.687Z,36.30
2022-08-03T14:26:00.416Z,36.10
2022-08-03T14:28:49.250Z,36.10
2022-08-03T14:32:11.995Z,36.30
2022-08-03T14:34:43.238Z,36.50
2022-08-03T14:37:29.742Z,36.70
2022-08-03T14:40:16.245Z,36.10
2022-08-03T14:43:03.348Z,36.90
2022-08-03T14:45:52.073Z,37.40
2022-08-03T14:50:31.701Z,38.70
2022-08-03T14:51:51.394Z,39.20
2022-08-03T14:54:40.089Z,40.20
2022-08-03T14:57:26.308Z,42.00
2022-08-03T15:00:13.527Z,42.80
2022-08-03T15:02:59.730Z,43.00
2022-08-03T15:05:46.132Z,42.80
2022-08-03T15:08:33.586Z,42.60
2022-08-03T15:11:20.181Z,42.60
2022-08-03T15:14:09.365Z,42.40
2022-08-03T15:16:55.977Z,43.10
2022-08-03T15:20:02.353Z,42.70
2022-08-03T15:22:48.160Z,42.70
2022-08-03T15:26:32.121Z,42.30
2022-08-03T15:28:41.622Z,41.80
2022-08-03T15:31:27.928Z,41.60
2022-08-03T15:34:14.214Z,41.60
2022-08-03T15:37:00.594Z,41.40
2022-08-03T15:39:59.393Z,41.50
2022-08-03T15:42:48.431Z,41.20
2022-08-03T15:45:36.223Z,40.90
2022-08-03T15:48:26.456Z,39.00
2022-08-03T15:51:12.895Z,37.30
2022-08-03T15:53:59.052Z,36.40
2022-08-03T15:56:45.339Z,35.90
2022-08-03T15:59:32.866Z,35.00
2022-08-03T16:02:18.980Z,35.20
2022-08-03T16:05:06.191Z,35.20
2022-08-03T16:08:03.863Z,35.00
2022-08-03T16:10:50.906Z,35.00
2022-08-03T16:14:04.692Z,34.80
2022-08-03T16:16:46.009Z,34.50
2022-08-03T16:19:33.142Z,33.80
2022-08-03T16:22:19.748Z,33.80
2022-08-03T16:25:13.761Z,33.40
2022-08-03T16:28:07.788Z,33.10
2022-08-03T16:30:54.668Z,32.90
2022-08-03T16:33:42.528Z,33.00
2022-08-03T16:36:28.729Z,33.20
2022-08-03T16:39:21.504Z,33.30
2022-08-03T16:42:07.919Z,33.40
2022-08-03T16:44:54.328Z,33.00
2022-08-03T16:47:40.764Z,32.60
2022-08-03T16:50:28.447Z,32.10
2022-08-03T16:53:16.620Z,31.80
2022-08-03T16:56:09.513Z,31.60
2022-08-03T16:58:56.437Z,31.40
2022-08-03T17:01:42.751Z,31.30
2022-08-03T17:04:34.970Z,31.10
2022-08-03T17:07:29.617Z,31.00
2022-08-03T17:10:16.858Z,31.30
2022-08-03T17:13:08.594Z,31.20
2022-08-03T17:15:57.901Z,31.10
2022-08-03T17:18:52.262Z,31.20
2022-08-03T17:21:50.695Z,31.00
2022-08-03T17:24:42.099Z,30.80
2022-08-03T17:28:51.173Z,30.40
2022-08-03T17:30:54.822Z,30.40
2022-08-03T17:33:41.493Z,30.20
2022-08-03T17:37:03.636Z,30.10
2022-08-03T17:39:58.714Z,29.80
2022-08-03T17:42:50.649Z,29.90
2022-08-03T17:45:52.046Z,29.70
2022-08-03T17:48:41.428Z,29.70
2022-08-03T17:51:32.521Z,29.70
2022-08-03T17:54:24.732Z,29.70
2022-08-03T17:57:27.289Z,29.60
2022-08-03T18:00:33.406Z,29.70
2022-08-03T18:03:28.022Z,29.40
2022-08-03T18:06:16.906Z,29.30
2022-08-03T18:10:03.350Z,29.20
2022-08-03T18:12:28.379Z,29.20
2022-08-03T18:15:21.241Z,29.10
2022-08-03T18:18:10.964Z,28.80
2022-08-03T18:20:58.315Z,28.70
2022-08-03T18:23:50.250Z,28.60
2022-08-03T18:26:38.837Z,28.40
2022-08-03T18:29:29.976Z,28.40
2022-08-03T18:32:17.175Z,28.30
2022-08-03T18:35:04.596Z,28.10
2022-08-03T18:37:52.532Z,28.10
2022-08-03T18:40:38.867Z,28.00
2022-08-03T18:43:46.488Z,27.80
2022-08-03T18:47:06.875Z,27.70
2022-08-03T18:50:04.188Z,27.70
2022-08-03T18:52:58.585Z,27.60
2022-08-03T18:56:02.246Z,27.60
2022-08-03T18:58:56.560Z,27.40
2022-08-03T19:02:00.881Z,27.40
2022-08-03T19:04:55.254Z,27.30
2022-08-03T19:07:58.205Z,27.10
2022-08-03T19:10:57.816Z,27.00
2022-08-03T19:13:51.524Z,26.90
2022-08-03T19:16:39.511Z,26.70
2022-08-03T19:19:44.463Z,26.50
2022-08-03T19:22:32.611Z,26.70
2022-08-03T19:25:19.229Z,26.60
2022-08-03T19:28:07.314Z,26.60
2022-08-03T19:30:56.949Z,26.40
2022-08-03T19:33:56.090Z,26.40
2022-08-03T19:36:46.497Z,26.40
2022-08-03T19:39:36.040Z,26.30
2022-08-03T19:42:30.465Z,26.30
2022-08-03T19:46:05.839Z,26.20
2022-08-03T19:48:36.516Z,26.10
2022-08-03T19:52:03.013Z,26.00
2022-08-03T19:54:53.109Z,25.80
2022-08-03T19:57:43.222Z,25.70
2022-08-03T20:00:34.054Z,25.60
2022-08-03T20:03:27.718Z,25.60
2022-08-03T20:06:29.622Z,25.50
2022-08-03T20:09:17.022Z,25.50
2022-08-03T20:12:05.194Z,25.40
2022-08-03T20:14:53.015Z,25.40
2022-08-03T20:17:57.143Z,25.40
2022-08-03T20:20:49.018Z,25.30
2022-08-03T20:23:39.426Z,25.10
2022-08-03T20:26:48.749Z,25.10
2022-08-03T20:30:06.618Z,25.20
2022-08-03T20:32:48.835Z,25.20
2022-08-03T20:35:35.519Z,25.00
2022-08-03T20:38:27.333Z,25.00
2022-08-03T20:41:14.356Z,24.90
2022-08-03T20:44:01.992Z,24.80
2022-08-03T20:46:53.389Z,24.80
2022-08-03T20:49:47.020Z,24.70
2022-08-03T20:52:33.511Z,24.70
2022-08-03T20:55:47.676Z,24.70
2022-08-03T20:58:26.970Z,24.60
2022-08-03T21:01:13.341Z,24.50
2022-08-03T21:04:04.558Z,24.50
2022-08-03T21:06:58.548Z,24.40
2022-08-03T21:09:52.106Z,24.30
2022-08-03T21:12:45.465Z,24.20
2022-08-03T21:16:11.484Z,24.20
2022-08-03T21:18:45.797Z,24.20
2022-08-03T21:21:34.176Z,24.30
2022-08-03T21:24:24.047Z,24.20
2022-08-03T21:27:10.404Z,24.00
2022-08-03T21:29:56.836Z,24.00
2022-08-03T21:32:45.392Z,23.80
2022-08-03T21:35:32.488Z,23.80
2022-08-03T21:38:20.566Z,23.80
2022-08-03T21:41:16.524Z,23.80
2022-08-03T21:44:03.315Z,23.80
2022-08-03T21:46:49.835Z,23.80
2022-08-03T21:50:07.020Z,23.70
2022-08-03T21:52:45.529Z,23.60
2022-08-03T21:55:34.401Z,23.60
2022-08-03T21:58:29.467Z,23.60
2022-08-03T22:01:16.585Z,23.50
2022-08-03T22:04:07.056Z,23.60
2022-08-03T22:06:53.942Z,23.40
2022-08-03T22:09:40.098Z,23.30
2022-08-03T22:12:39.118Z,23.30
2022-08-03T22:15:25.467Z,23.20
2022-08-03T22:18:11.813Z,23.40
2022-08-03T22:20:59.656Z,23.20
2022-08-03T22:23:48.733Z,23.20
2022-08-03T22:26:40.592Z,23.10
2022-08-03T22:29:28.585Z,23.10
2022-08-03T22:32:15.189Z,23.10
2022-08-03T22:35:05.125Z,23.00
2022-08-03T22:37:54.502Z,23.10
2022-08-03T22:40:40.805Z,23.20
2022-08-03T22:43:28.252Z,23.10
2022-08-03T22:46:18.866Z,23.00
2022-08-03T22:49:05.999Z,22.90
2022-08-03T22:51:52.986Z,23.10
2022-08-03T22:54:39.573Z,22.90
2022-08-03T22:57:26.414Z,22.80
2022-08-03T23:00:15.089Z,22.70
2022-08-03T23:03:05.548Z,22.70
2022-08-03T23:06:00.238Z,22.80
2022-08-03T23:08:51.271Z,22.60
2022-08-03T23:11:43.008Z,22.70
2022-08-03T23:14:37.142Z,22.50
2022-08-03T23:17:24.863Z,22.40
2022-08-03T23:20:15.074Z,22.50
2022-08-03T23:23:04.069Z,22.60
2022-08-03T23:25:52.250Z,22.60
2022-08-03T23:28:40.650Z,22.40
2022-08-03T23:31:29.315Z,22.60
2022-08-03T23:34:34.628Z,22.40
2022-08-03T23:37:23.088Z,22.30
2022-08-03T23:40:11.630Z,22.40
2022-08-03T23:42:59.001Z,22.30
2022-08-03T23:45:45.962Z,22.40
2022-08-03T23:48:32.263Z,22.10
2022-08-03T23:51:24.388Z,22.20
2022-08-03T23:54:27.978Z,22.20
2022-08-03T23:57:21.953Z,22.00
